sensor_id;sensor_type;location;lat;lon;timestamp;pressure;altitude;pressure_sealevel;temperature;humidity
35888;BME280;21990;42.540;23.496;2023-05-24T00:02:05;93405.56;;;9.33;92.74
35888;BME280;21990;42.540;23.496;2023-05-24T00:04:32;93397.78;;;9.21;93.18
35888;BME280;21990;42.540;23.496;2023-05-24T00:06:57;93404.41;;;8.99;94.05
35888;BME280;21990;42.540;23.496;2023-05-24T00:09:23;93405.09;;;9.05;94.76
35888;BME280;21990;42.540;23.496;2023-05-24T00:11:48;93409.72;;;9.27;92.72
35888;BME280;21990;42.540;23.496;2023-05-24T00:14:14;93402.00;;;9.33;92.69
35888;BME280;21990;42.540;23.496;2023-05-24T00:16:40;93401.41;;;9.16;93.43
35888;BME280;21990;42.540;23.496;2023-05-24T00:19:05;93401.06;;;9.00;92.63
35888;BME280;21990;42.540;23.496;2023-05-24T00:21:31;93398.25;;;9.00;93.22
35888;BME280;21990;42.540;23.496;2023-05-24T00:23:59;93389.41;;;9.15;92.57
35888;BME280;21990;42.540;23.496;2023-05-24T00:26:25;93399.53;;;9.24;92.46
35888;BME280;21990;42.540;23.496;2023-05-24T00:28:50;93392.94;;;8.97;93.53
35888;BME280;21990;42.540;23.496;2023-05-24T00:31:16;93393.09;;;9.04;93.89
35888;BME280;21990;42.540;23.496;2023-05-24T00:33:41;93389.22;;;9.07;93.32
35888;BME280;21990;42.540;23.496;2023-05-24T00:36:07;93386.78;;;8.98;93.70
35888;BME280;21990;42.540;23.496;2023-05-24T00:38:33;93396.84;;;8.88;94.00
35888;BME280;21990;42.540;23.496;2023-05-24T00:40:59;93380.56;;;8.81;94.35
35888;BME280;21990;42.540;23.496;2023-05-24T00:43:25;93380.16;;;8.96;93.74
35888;BME280;21990;42.540;23.496;2023-05-24T00:46:11;93383.91;;;8.80;93.61
35888;BME280;21990;42.540;23.496;2023-05-24T00:48:40;93386.75;;;8.50;95.07
35888;BME280;21990;42.540;23.496;2023-05-24T00:51:06;93389.34;;;8.42;96.02
35888;BME280;21990;42.540;23.496;2023-05-24T00:53:32;93381.13;;;8.50;96.08
35888;BME280;21990;42.540;23.496;2023-05-24T00:55:58;93393.69;;;8.43;96.10
35888;BME280;21990;42.540;23.496;2023-05-24T00:58:24;93383.34;;;8.57;95.11
35888;BME280;21990;42.540;23.496;2023-05-24T01:00:57;93392.13;;;8.48;94.75
35888;BME280;21990;42.540;23.496;2023-05-24T01:03:24;93386.94;;;8.22;96.17
35888;BME280;21990;42.540;23.496;2023-05-24T01:05:57;93385.94;;;8.20;96.55
35888;BME280;21990;42.540;23.496;2023-05-24T01:11:33;93397.00;;;8.06;96.91
35888;BME280;21990;42.540;23.496;2023-05-24T01:17:13;93391.16;;;8.04;97.11
35888;BME280;21990;42.540;23.496;2023-05-24T01:19:56;93395.31;;;8.28;96.01
35888;BME280;21990;42.540;23.496;2023-05-24T01:27:54;93388.34;;;8.04;96.45
35888;BME280;21990;42.540;23.496;2023-05-24T01:30:20;93392.44;;;8.03;96.68
35888;BME280;21990;42.540;23.496;2023-05-24T01:32:46;93392.13;;;8.13;96.22
35888;BME280;21990;42.540;23.496;2023-05-24T01:35:12;93393.47;;;8.00;96.02
35888;BME280;21990;42.540;23.496;2023-05-24T01:37:37;93387.78;;;8.11;95.95
35888;BME280;21990;42.540;23.496;2023-05-24T01:40:04;93382.41;;;8.13;95.41
35888;BME280;21990;42.540;23.496;2023-05-24T01:51:05;93392.81;;;7.83;96.55
35888;BME280;21990;42.540;23.496;2023-05-24T01:53:39;93390.81;;;7.78;96.59
35888;BME280;21990;42.540;23.496;2023-05-24T01:56:06;93396.75;;;7.63;97.18
35888;BME280;21990;42.540;23.496;2023-05-24T01:58:33;93397.28;;;7.62;97.00
35888;BME280;21990;42.540;23.496;2023-05-24T02:01:01;93393.66;;;7.73;96.30
35888;BME280;21990;42.540;23.496;2023-05-24T02:03:26;93392.38;;;7.74;96.90
35888;BME280;21990;42.540;23.496;2023-05-24T02:05:52;93385.94;;;7.84;95.80
35888;BME280;21990;42.540;23.496;2023-05-24T02:08:18;93399.06;;;7.65;95.82
35888;BME280;21990;42.540;23.496;2023-05-24T02:10:43;93390.84;;;7.73;95.54
35888;BME280;21990;42.540;23.496;2023-05-24T02:13:09;93384.28;;;7.59;95.62
35888;BME280;21990;42.540;23.496;2023-05-24T02:15:35;93388.81;;;7.73;95.46
35888;BME280;21990;42.540;23.496;2023-05-24T02:18:00;93382.88;;;7.82;95.36
35888;BME280;21990;42.540;23.496;2023-05-24T02:20:29;93385.47;;;7.75;95.92
35888;BME280;21990;42.540;23.496;2023-05-24T02:22:56;93379.28;;;7.87;96.70
35888;BME280;21990;42.540;23.496;2023-05-24T02:25:22;93383.31;;;7.97;96.49
35888;BME280;21990;42.540;23.496;2023-05-24T02:27:48;93388.16;;;7.97;97.45
35888;BME280;21990;42.540;23.496;2023-05-24T02:30:13;93382.25;;;8.00;97.38
35888;BME280;21990;42.540;23.496;2023-05-24T02:32:39;93382.69;;;8.10;96.83
35888;BME280;21990;42.540;23.496;2023-05-24T02:35:05;93384.22;;;8.11;95.92
35888;BME280;21990;42.540;23.496;2023-05-24T02:37:31;93384.31;;;8.00;95.86
35888;BME280;21990;42.540;23.496;2023-05-24T02:39:57;93389.41;;;8.01;96.70
35888;BME280;21990;42.540;23.496;2023-05-24T02:42:22;93385.34;;;7.97;96.36
35888;BME280;21990;42.540;23.496;2023-05-24T02:44:48;93384.88;;;7.93;95.99
35888;BME280;21990;42.540;23.496;2023-05-24T02:47:19;93384.81;;;7.98;95.96
35888;BME280;21990;42.540;23.496;2023-05-24T02:49:45;93388.88;;;8.03;95.19
35888;BME280;21990;42.540;23.496;2023-05-24T02:52:10;93385.56;;;8.04;96.00
35888;BME280;21990;42.540;23.496;2023-05-24T02:54:38;93388.00;;;7.78;96.42
35888;BME280;21990;42.540;23.496;2023-05-24T02:57:04;93389.84;;;7.70;97.37
35888;BME280;21990;42.540;23.496;2023-05-24T02:59:31;93384.47;;;7.72;97.55
35888;BME280;21990;42.540;23.496;2023-05-24T03:01:58;93383.91;;;7.79;97.65
35888;BME280;21990;42.540;23.496;2023-05-24T03:04:23;93389.25;;;7.83;97.88
35888;BME280;21990;42.540;23.496;2023-05-24T03:06:49;93390.00;;;7.83;97.92
35888;BME280;21990;42.540;23.496;2023-05-24T03:09:15;93385.69;;;7.82;97.81
35888;BME280;21990;42.540;23.496;2023-05-24T03:11:41;93387.78;;;7.71;98.04
35888;BME280;21990;42.540;23.496;2023-05-24T03:14:07;93389.09;;;7.70;98.80
35888;BME280;21990;42.540;23.496;2023-05-24T03:16:35;93389.59;;;7.68;99.07
35888;BME280;21990;42.540;23.496;2023-05-24T03:19:01;93389.66;;;7.57;99.78
35888;BME280;21990;42.540;23.496;2023-05-24T03:21:26;93380.97;;;7.66;99.74
35888;BME280;21990;42.540;23.496;2023-05-24T03:23:52;93385.25;;;7.67;99.76
35888;BME280;21990;42.540;23.496;2023-05-24T03:26:17;93387.34;;;7.61;99.99
35888;BME280;21990;42.540;23.496;2023-05-24T03:28:43;93399.38;;;7.50;99.99
35888;BME280;21990;42.540;23.496;2023-05-24T03:31:10;93387.84;;;7.59;100.00
35888;BME280;21990;42.540;23.496;2023-05-24T03:33:36;93392.38;;;7.74;100.00
35888;BME280;21990;42.540;23.496;2023-05-24T03:36:02;93396.38;;;7.89;99.77
35888;BME280;21990;42.540;23.496;2023-05-24T03:38:28;93401.78;;;7.82;100.00
35888;BME280;21990;42.540;23.496;2023-05-24T03:40:54;93402.56;;;7.71;100.00
35888;BME280;21990;42.540;23.496;2023-05-24T03:43:19;93399.56;;;7.63;100.00
35888;BME280;21990;42.540;23.496;2023-05-24T03:45:46;93402.31;;;7.75;100.00
35888;BME280;21990;42.540;23.496;2023-05-24T03:48:12;93398.06;;;7.62;100.00
35888;BME280;21990;42.540;23.496;2023-05-24T03:50:37;93410.22;;;7.71;100.00
35888;BME280;21990;42.540;23.496;2023-05-24T03:53:03;93410.72;;;7.75;100.00
35888;BME280;21990;42.540;23.496;2023-05-24T03:55:29;93409.00;;;7.66;100.00
35888;BME280;21990;42.540;23.496;2023-05-24T03:57:54;93403.91;;;7.64;100.00
35888;BME280;21990;42.540;23.496;2023-05-24T04:00:20;93410.81;;;7.58;100.00
35888;BME280;21990;42.540;23.496;2023-05-24T04:02:46;93405.72;;;7.56;100.00
35888;BME280;21990;42.540;23.496;2023-05-24T04:05:12;93413.16;;;7.48;100.00
35888;BME280;21990;42.540;23.496;2023-05-24T04:07:39;93412.06;;;7.62;100.00
35888;BME280;21990;42.540;23.496;2023-05-24T04:10:06;93411.47;;;7.75;100.00
35888;BME280;21990;42.540;23.496;2023-05-24T04:12:32;93413.44;;;7.91;100.00
35888;BME280;21990;42.540;23.496;2023-05-24T04:14:58;93411.91;;;7.90;100.00
35888;BME280;21990;42.540;23.496;2023-05-24T04:17:25;93415.66;;;8.04;100.00
35888;BME280;21990;42.540;23.496;2023-05-24T04:19:52;93414.94;;;8.33;100.00
35888;BME280;21990;42.540;23.496;2023-05-24T04:22:17;93409.94;;;8.80;100.00
35888;BME280;21990;42.540;23.496;2023-05-24T04:24:46;93410.44;;;9.09;100.00
35888;BME280;21990;42.540;23.496;2023-05-24T04:27:11;93411.84;;;9.64;96.20
35888;BME280;21990;42.540;23.496;2023-05-24T04:29:40;93407.06;;;9.77;95.47
35888;BME280;21990;42.540;23.496;2023-05-24T04:32:06;93411.03;;;10.25;93.31
35888;BME280;21990;42.540;23.496;2023-05-24T04:34:34;93407.34;;;10.48;91.51
35888;BME280;21990;42.540;23.496;2023-05-24T04:37:00;93408.09;;;10.81;92.88
35888;BME280;21990;42.540;23.496;2023-05-24T04:39:29;93403.91;;;11.14;89.98
35888;BME280;21990;42.540;23.496;2023-05-24T04:41:55;93405.44;;;11.54;86.24
35888;BME280;21990;42.540;23.496;2023-05-24T04:44:22;93406.84;;;11.61;85.63
35888;BME280;21990;42.540;23.496;2023-05-24T04:46:49;93410.97;;;11.86;83.62
35888;BME280;21990;42.540;23.496;2023-05-24T04:49:14;93419.22;;;12.31;84.19
35888;BME280;21990;42.540;23.496;2023-05-24T04:51:40;93414.66;;;12.62;85.45
35888;BME280;21990;42.540;23.496;2023-05-24T04:54:06;93412.94;;;13.00;81.38
35888;BME280;21990;42.540;23.496;2023-05-24T04:56:35;93425.16;;;13.37;83.67
35888;BME280;21990;42.540;23.496;2023-05-24T04:59:03;93418.44;;;13.75;84.85
35888;BME280;21990;42.540;23.496;2023-05-24T05:01:30;93419.06;;;14.33;84.12
35888;BME280;21990;42.540;23.496;2023-05-24T05:03:55;93419.28;;;14.93;76.17
35888;BME280;21990;42.540;23.496;2023-05-24T05:06:21;93423.25;;;14.98;76.78
35888;BME280;21990;42.540;23.496;2023-05-24T05:08:47;93420.63;;;15.23;80.83
35888;BME280;21990;42.540;23.496;2023-05-24T05:11:13;93418.34;;;15.82;78.33
35888;BME280;21990;42.540;23.496;2023-05-24T05:13:39;93416.00;;;15.95;75.91
35888;BME280;21990;42.540;23.496;2023-05-24T05:16:05;93415.81;;;16.56;74.34
35888;BME280;21990;42.540;23.496;2023-05-24T05:18:30;93415.31;;;17.15;74.43
35888;BME280;21990;42.540;23.496;2023-05-24T05:20:57;93408.44;;;17.67;71.21
35888;BME280;21990;42.540;23.496;2023-05-24T05:23:22;93410.31;;;17.72;68.75
35888;BME280;21990;42.540;23.496;2023-05-24T05:25:53;93407.69;;;18.09;69.47
35888;BME280;21990;42.540;23.496;2023-05-24T05:28:18;93400.41;;;18.76;67.12
35888;BME280;21990;42.540;23.496;2023-05-24T05:30:44;93409.38;;;18.90;66.60
35888;BME280;21990;42.540;23.496;2023-05-24T05:33:10;93398.94;;;19.02;63.69
35888;BME280;21990;42.540;23.496;2023-05-24T05:35:35;93401.34;;;18.79;61.50
35888;BME280;21990;42.540;23.496;2023-05-24T05:38:01;93403.88;;;18.40;64.25
35888;BME280;21990;42.540;23.496;2023-05-24T05:40:26;93401.16;;;18.94;65.58
35888;BME280;21990;42.540;23.496;2023-05-24T05:42:52;93396.28;;;18.87;61.13
35888;BME280;21990;42.540;23.496;2023-05-24T05:45:18;93399.88;;;19.41;64.68
35888;BME280;21990;42.540;23.496;2023-05-24T05:47:43;93400.69;;;19.51;61.92
35888;BME280;21990;42.540;23.496;2023-05-24T05:50:09;93404.78;;;19.31;62.50
35888;BME280;21990;42.540;23.496;2023-05-24T05:52:35;93401.59;;;19.27;61.74
35888;BME280;21990;42.540;23.496;2023-05-24T05:55:00;93405.25;;;19.64;63.15
35888;BME280;21990;42.540;23.496;2023-05-24T05:57:26;93399.75;;;19.95;62.33
35888;BME280;21990;42.540;23.496;2023-05-24T05:59:52;93404.06;;;20.61;64.63
35888;BME280;21990;42.540;23.496;2023-05-24T06:02:17;93401.25;;;21.30;63.07
35888;BME280;21990;42.540;23.496;2023-05-24T06:04:44;93398.84;;;21.67;60.71
35888;BME280;21990;42.540;23.496;2023-05-24T06:07:10;93404.44;;;21.96;58.16
35888;BME280;21990;42.540;23.496;2023-05-24T06:09:35;93405.16;;;22.27;58.14
35888;BME280;21990;42.540;23.496;2023-05-24T06:12:01;93405.03;;;22.46;56.73
35888;BME280;21990;42.540;23.496;2023-05-24T06:14:26;93404.25;;;22.67;55.08
35888;BME280;21990;42.540;23.496;2023-05-24T06:16:52;93404.88;;;22.87;54.03
35888;BME280;21990;42.540;23.496;2023-05-24T06:19:19;93399.84;;;23.20;54.11
35888;BME280;21990;42.540;23.496;2023-05-24T06:21:46;93400.69;;;22.99;51.70
35888;BME280;21990;42.540;23.496;2023-05-24T06:24:13;93402.50;;;22.83;54.04
35888;BME280;21990;42.540;23.496;2023-05-24T06:26:39;93405.09;;;22.79;50.26
35888;BME280;21990;42.540;23.496;2023-05-24T06:29:06;93403.59;;;22.36;53.24
35888;BME280;21990;42.540;23.496;2023-05-24T06:31:32;93400.78;;;22.26;50.09
35888;BME280;21990;42.540;23.496;2023-05-24T06:33:59;93397.16;;;22.47;52.05
35888;BME280;21990;42.540;23.496;2023-05-24T06:36:24;93396.06;;;22.31;56.02
35888;BME280;21990;42.540;23.496;2023-05-24T06:38:50;93394.25;;;22.89;54.75
35888;BME280;21990;42.540;23.496;2023-05-24T06:41:16;93398.53;;;23.00;49.67
35888;BME280;21990;42.540;23.496;2023-05-24T06:43:42;93389.22;;;23.11;54.43
35888;BME280;21990;42.540;23.496;2023-05-24T06:46:08;93393.19;;;22.73;49.36
35888;BME280;21990;42.540;23.496;2023-05-24T06:48:34;93395.25;;;22.82;48.72
35888;BME280;21990;42.540;23.496;2023-05-24T06:50:59;93389.38;;;22.92;54.50
35888;BME280;21990;42.540;23.496;2023-05-24T06:53:25;93382.72;;;23.90;54.04
35888;BME280;21990;42.540;23.496;2023-05-24T06:55:51;93383.59;;;23.69;53.01
35888;BME280;21990;42.540;23.496;2023-05-24T06:58:17;93377.34;;;23.61;55.42
35888;BME280;21990;42.540;23.496;2023-05-24T07:00:42;93376.78;;;24.46;50.94
35888;BME280;21990;42.540;23.496;2023-05-24T07:03:11;93378.97;;;23.64;49.62
35888;BME280;21990;42.540;23.496;2023-05-24T07:05:37;93374.72;;;23.77;52.06
35888;BME280;21990;42.540;23.496;2023-05-24T07:08:03;93372.75;;;23.35;51.80
35888;BME280;21990;42.540;23.496;2023-05-24T07:10:29;93369.13;;;24.50;53.42
35888;BME280;21990;42.540;23.496;2023-05-24T07:12:55;93357.56;;;24.62;48.59
35888;BME280;21990;42.540;23.496;2023-05-24T07:15:20;93364.47;;;25.19;50.40
35888;BME280;21990;42.540;23.496;2023-05-24T07:17:46;93365.91;;;25.57;48.14
35888;BME280;21990;42.540;23.496;2023-05-24T07:20:12;93360.94;;;26.53;48.41
35888;BME280;21990;42.540;23.496;2023-05-24T07:22:39;93363.75;;;26.94;47.26
35888;BME280;21990;42.540;23.496;2023-05-24T07:25:05;93368.59;;;26.89;46.83
35888;BME280;21990;42.540;23.496;2023-05-24T07:27:31;93377.63;;;26.68;43.46
35888;BME280;21990;42.540;23.496;2023-05-24T07:29:57;93369.81;;;26.16;42.18
35888;BME280;21990;42.540;23.496;2023-05-24T07:32:23;93373.97;;;25.86;43.25
35888;BME280;21990;42.540;23.496;2023-05-24T07:34:48;93369.53;;;25.58;39.72
35888;BME280;21990;42.540;23.496;2023-05-24T07:37:15;93360.03;;;25.55;39.34
35888;BME280;21990;42.540;23.496;2023-05-24T07:39:41;93365.56;;;25.26;42.17
35888;BME280;21990;42.540;23.496;2023-05-24T07:42:08;93371.63;;;25.43;44.98
35888;BME280;21990;42.540;23.496;2023-05-24T07:44:33;93364.22;;;25.66;43.31
35888;BME280;21990;42.540;23.496;2023-05-24T07:46:59;93365.63;;;24.89;38.69
35888;BME280;21990;42.540;23.496;2023-05-24T07:49:27;93374.69;;;25.09;39.80
35888;BME280;21990;42.540;23.496;2023-05-24T07:51:52;93374.69;;;25.09;39.59
35888;BME280;21990;42.540;23.496;2023-05-24T07:54:21;93360.38;;;25.36;41.43
35888;BME280;21990;42.540;23.496;2023-05-24T07:56:47;93371.00;;;25.20;38.75
35888;BME280;21990;42.540;23.496;2023-05-24T07:59:13;93371.16;;;24.85;36.74
35888;BME280;21990;42.540;23.496;2023-05-24T08:01:39;93367.38;;;24.94;40.76
35888;BME280;21990;42.540;23.496;2023-05-24T08:04:05;93372.88;;;25.01;41.59
35888;BME280;21990;42.540;23.496;2023-05-24T08:06:34;93369.63;;;24.95;40.25
35888;BME280;21990;42.540;23.496;2023-05-24T08:09:00;93375.25;;;25.19;42.98
35888;BME280;21990;42.540;23.496;2023-05-24T08:11:26;93368.00;;;25.18;40.91
35888;BME280;21990;42.540;23.496;2023-05-24T08:13:52;93368.25;;;24.96;39.62
35888;BME280;21990;42.540;23.496;2023-05-24T08:16:17;93368.69;;;25.04;41.87
35888;BME280;21990;42.540;23.496;2023-05-24T08:18:43;93369.63;;;25.21;43.67
35888;BME280;21990;42.540;23.496;2023-05-24T08:21:08;93364.25;;;25.40;41.21
35888;BME280;21990;42.540;23.496;2023-05-24T08:23:34;93357.78;;;25.54;45.26
35888;BME280;21990;42.540;23.496;2023-05-24T08:26:00;93354.94;;;25.67;41.23
35888;BME280;21990;42.540;23.496;2023-05-24T08:28:28;93366.16;;;25.36;38.10
35888;BME280;21990;42.540;23.496;2023-05-24T08:30:54;93358.78;;;24.34;42.06
35888;BME280;21990;42.540;23.496;2023-05-24T08:33:20;93373.69;;;24.07;43.31
35888;BME280;21990;42.540;23.496;2023-05-24T08:35:48;93369.56;;;23.87;44.36
35888;BME280;21990;42.540;23.496;2023-05-24T08:38:14;93371.44;;;23.94;45.42
35888;BME280;21990;42.540;23.496;2023-05-24T08:40:40;93359.41;;;24.09;45.19
35888;BME280;21990;42.540;23.496;2023-05-24T08:43:06;93364.66;;;24.12;45.55
35888;BME280;21990;42.540;23.496;2023-05-24T08:45:37;93361.78;;;24.24;45.83
35888;BME280;21990;42.540;23.496;2023-05-24T08:48:06;93365.13;;;24.44;46.82
35888;BME280;21990;42.540;23.496;2023-05-24T08:50:32;93370.06;;;24.78;47.00
35888;BME280;21990;42.540;23.496;2023-05-24T08:52:59;93366.06;;;25.09;47.69
35888;BME280;21990;42.540;23.496;2023-05-24T08:55:28;93359.19;;;25.41;46.12
35888;BME280;21990;42.540;23.496;2023-05-24T08:57:54;93363.53;;;25.54;45.66
35888;BME280;21990;42.540;23.496;2023-05-24T09:00:21;93360.25;;;25.59;43.02
35888;BME280;21990;42.540;23.496;2023-05-24T09:02:48;93358.56;;;25.68;45.43
35888;BME280;21990;42.540;23.496;2023-05-24T09:05:14;93365.63;;;25.78;45.37
35888;BME280;21990;42.540;23.496;2023-05-24T09:07:47;93358.06;;;25.98;43.37
35888;BME280;21990;42.540;23.496;2023-05-24T09:10:14;93370.69;;;26.19;43.37
35888;BME280;21990;42.540;23.496;2023-05-24T09:12:43;93374.00;;;26.27;42.96
35888;BME280;21990;42.540;23.496;2023-05-24T09:15:10;93367.28;;;26.36;41.07
35888;BME280;21990;42.540;23.496;2023-05-24T09:17:37;93370.78;;;26.48;40.49
35888;BME280;21990;42.540;23.496;2023-05-24T09:20:06;93374.75;;;26.27;41.08
35888;BME280;21990;42.540;23.496;2023-05-24T09:22:34;93359.72;;;25.76;38.86
35888;BME280;21990;42.540;23.496;2023-05-24T09:25:02;93367.00;;;25.77;44.38
35888;BME280;21990;42.540;23.496;2023-05-24T09:27:31;93364.59;;;25.99;41.43
35888;BME280;21990;42.540;23.496;2023-05-24T09:29:57;93355.25;;;26.01;37.60
35888;BME280;21990;42.540;23.496;2023-05-24T09:32:23;93354.31;;;26.10;40.74
35888;BME280;21990;42.540;23.496;2023-05-24T09:34:51;93350.22;;;25.74;39.83
35888;BME280;21990;42.540;23.496;2023-05-24T09:37:21;93356.44;;;25.43;41.08
35888;BME280;21990;42.540;23.496;2023-05-24T09:39:49;93362.91;;;25.30;42.09
35888;BME280;21990;42.540;23.496;2023-05-24T09:42:22;93355.94;;;24.96;39.63
35888;BME280;21990;42.540;23.496;2023-05-24T09:45:05;93356.34;;;24.90;40.61
35888;BME280;21990;42.540;23.496;2023-05-24T09:47:42;93361.63;;;24.94;41.35
35888;BME280;21990;42.540;23.496;2023-05-24T09:50:13;93362.34;;;24.94;41.00
35888;BME280;21990;42.540;23.496;2023-05-24T09:52:40;93347.00;;;24.78;39.95
35888;BME280;21990;42.540;23.496;2023-05-24T09:55:16;93346.53;;;24.70;42.02
35888;BME280;21990;42.540;23.496;2023-05-24T09:58:02;93344.19;;;24.55;43.69
35888;BME280;21990;42.540;23.496;2023-05-24T10:00:28;93347.50;;;24.38;43.42
35888;BME280;21990;42.540;23.496;2023-05-24T10:03:08;93345.16;;;24.23;44.74
35888;BME280;21990;42.540;23.496;2023-05-24T10:05:35;93344.94;;;23.95;46.76
35888;BME280;21990;42.540;23.496;2023-05-24T10:08:02;93347.31;;;23.76;45.42
35888;BME280;21990;42.540;23.496;2023-05-24T10:10:31;93347.81;;;23.60;45.04
35888;BME280;21990;42.540;23.496;2023-05-24T10:12:58;93351.06;;;23.67;48.92
35888;BME280;21990;42.540;23.496;2023-05-24T10:15:25;93352.69;;;23.70;49.38
35888;BME280;21990;42.540;23.496;2023-05-24T10:17:53;93341.41;;;23.74;49.94
35888;BME280;21990;42.540;23.496;2023-05-24T10:20:18;93347.94;;;23.86;41.68
35888;BME280;21990;42.540;23.496;2023-05-24T10:22:46;93337.38;;;24.13;46.59
35888;BME280;21990;42.540;23.496;2023-05-24T10:25:22;93348.03;;;24.23;40.41
35888;BME280;21990;42.540;23.496;2023-05-24T10:28:03;93344.03;;;24.28;37.37
35888;BME280;21990;42.540;23.496;2023-05-24T10:30:35;93338.66;;;24.22;37.30
35888;BME280;21990;42.540;23.496;2023-05-24T10:33:05;93336.03;;;23.91;38.72
35888;BME280;21990;42.540;23.496;2023-05-24T10:35:32;93336.25;;;24.30;40.74
35888;BME280;21990;42.540;23.496;2023-05-24T10:38:07;93335.16;;;24.61;41.13
35888;BME280;21990;42.540;23.496;2023-05-24T10:40:33;93332.78;;;24.94;41.27
35888;BME280;21990;42.540;23.496;2023-05-24T10:43:03;93333.66;;;24.96;36.61
35888;BME280;21990;42.540;23.496;2023-05-24T10:45:32;93333.88;;;25.00;39.61
35888;BME280;21990;42.540;23.496;2023-05-24T10:50:38;93326.03;;;24.89;39.09
35888;BME280;21990;42.540;23.496;2023-05-24T10:55:55;93328.78;;;24.87;40.35
35888;BME280;21990;42.540;23.496;2023-05-24T11:01:34;93316.88;;;24.93;35.76
35888;BME280;21990;42.540;23.496;2023-05-24T11:04:11;93325.22;;;25.00;37.27
35888;BME280;21990;42.540;23.496;2023-05-24T11:07:02;93321.44;;;25.23;38.11
35888;BME280;21990;42.540;23.496;2023-05-24T11:09:29;93317.22;;;25.38;38.84
35888;BME280;21990;42.540;23.496;2023-05-24T11:11:58;93313.78;;;25.41;35.05
35888;BME280;21990;42.540;23.496;2023-05-24T11:14:27;93317.97;;;25.38;36.32
35888;BME280;21990;42.540;23.496;2023-05-24T11:16:53;93305.53;;;25.22;37.26
35888;BME280;21990;42.540;23.496;2023-05-24T11:19:21;93318.59;;;24.98;37.96
35888;BME280;21990;42.540;23.496;2023-05-24T11:21:48;93300.66;;;24.99;37.59
35888;BME280;21990;42.540;23.496;2023-05-24T11:24:18;93312.31;;;25.01;38.35
35888;BME280;21990;42.540;23.496;2023-05-24T11:26:44;93305.81;;;25.01;44.82
35888;BME280;21990;42.540;23.496;2023-05-24T11:29:12;93306.88;;;24.82;39.84
35888;BME280;21990;42.540;23.496;2023-05-24T11:31:49;93307.13;;;24.86;42.39
35888;BME280;21990;42.540;23.496;2023-05-24T11:34:15;93309.91;;;24.84;39.37
35888;BME280;21990;42.540;23.496;2023-05-24T11:36:42;93316.41;;;24.85;40.99
35888;BME280;21990;42.540;23.496;2023-05-24T11:39:08;93307.44;;;24.67;38.27
35888;BME280;21990;42.540;23.496;2023-05-24T11:41:38;93303.34;;;24.58;37.39
35888;BME280;21990;42.540;23.496;2023-05-24T11:44:06;93297.78;;;24.74;38.15
35888;BME280;21990;42.540;23.496;2023-05-24T11:46:32;93294.59;;;24.82;39.48
35888;BME280;21990;42.540;23.496;2023-05-24T11:48:59;93299.59;;;24.93;40.37
35888;BME280;21990;42.540;23.496;2023-05-24T11:51:29;93288.06;;;24.93;36.40
35888;BME280;21990;42.540;23.496;2023-05-24T11:53:56;93290.78;;;25.16;40.35
35888;BME280;21990;42.540;23.496;2023-05-24T11:56:23;93285.47;;;25.38;39.91
35888;BME280;21990;42.540;23.496;2023-05-24T11:58:49;93283.91;;;25.48;36.40
35888;BME280;21990;42.540;23.496;2023-05-24T12:01:25;93278.81;;;25.22;34.39
35888;BME280;21990;42.540;23.496;2023-05-24T12:03:51;93275.06;;;25.06;33.44
35888;BME280;21990;42.540;23.496;2023-05-24T12:06:18;93277.00;;;25.15;37.39
35888;BME280;21990;42.540;23.496;2023-05-24T12:08:44;93267.81;;;25.04;33.30
35888;BME280;21990;42.540;23.496;2023-05-24T12:11:10;93269.19;;;25.03;34.98
35888;BME280;21990;42.540;23.496;2023-05-24T12:13:36;93259.75;;;24.89;34.66
35888;BME280;21990;42.540;23.496;2023-05-24T12:16:02;93269.53;;;25.10;37.20
35888;BME280;21990;42.540;23.496;2023-05-24T12:18:28;93270.41;;;25.26;34.96
35888;BME280;21990;42.540;23.496;2023-05-24T12:20:53;93272.34;;;25.35;35.16
35888;BME280;21990;42.540;23.496;2023-05-24T12:23:22;93272.34;;;25.35;37.15
35888;BME280;21990;42.540;23.496;2023-05-24T12:25:48;93268.63;;;25.46;34.89
35888;BME280;21990;42.540;23.496;2023-05-24T12:28:14;93260.84;;;25.48;36.42
35888;BME280;21990;42.540;23.496;2023-05-24T12:30:40;93264.88;;;25.43;38.68
35888;BME280;21990;42.540;23.496;2023-05-24T12:33:10;93271.38;;;25.30;36.07
35888;BME280;21990;42.540;23.496;2023-05-24T12:35:39;93262.06;;;25.18;37.41
35888;BME280;21990;42.540;23.496;2023-05-24T12:38:09;93258.00;;;25.23;37.17
35888;BME280;21990;42.540;23.496;2023-05-24T12:40:35;93255.56;;;25.31;37.59
35888;BME280;21990;42.540;23.496;2023-05-24T12:43:03;93255.88;;;25.24;38.50
35888;BME280;21990;42.540;23.496;2023-05-24T12:45:29;93256.38;;;25.07;40.65
35888;BME280;21990;42.540;23.496;2023-05-24T12:47:56;93253.25;;;25.02;38.03
35888;BME280;21990;42.540;23.496;2023-05-24T12:50:23;93253.94;;;25.15;38.26
35888;BME280;21990;42.540;23.496;2023-05-24T12:52:50;93245.28;;;25.15;39.18
35888;BME280;21990;42.540;23.496;2023-05-24T12:55:22;93248.06;;;25.13;39.87
35888;BME280;21990;42.540;23.496;2023-05-24T12:57:48;93243.06;;;25.13;41.00
35888;BME280;21990;42.540;23.496;2023-05-24T13:00:21;93255.06;;;24.96;40.26
35888;BME280;21990;42.540;23.496;2023-05-24T13:02:47;93252.81;;;24.69;40.54
35888;BME280;21990;42.540;23.496;2023-05-24T13:05:14;93256.97;;;24.66;39.79
35888;BME280;21990;42.540;23.496;2023-05-24T13:07:43;93263.75;;;24.59;40.86
35888;BME280;21990;42.540;23.496;2023-05-24T13:10:09;93258.91;;;24.25;39.94
35888;BME280;21990;42.540;23.496;2023-05-24T13:12:35;93274.44;;;24.20;41.81
35888;BME280;21990;42.540;23.496;2023-05-24T13:15:01;93267.22;;;23.95;41.51
35888;BME280;21990;42.540;23.496;2023-05-24T13:17:27;93261.50;;;23.72;42.86
35888;BME280;21990;42.540;23.496;2023-05-24T13:19:53;93260.16;;;23.73;42.86
35888;BME280;21990;42.540;23.496;2023-05-24T13:22:19;93260.41;;;23.54;43.88